createdAt,value
2019-02-27T00:01:18.983Z,15.75
2019-02-27T00:03:49.125Z,15.00
2019-02-27T00:06:19.240Z,13.83
2019-02-27T00:08:49.384Z,17.02
2019-02-27T00:11:19.502Z,18.23
2019-02-27T00:13:49.773Z,11.95
2019-02-27T00:16:19.920Z,12.13
2019-02-27T00:18:50.057Z,13.60
2019-02-27T00:21:20.206Z,11.90
2019-02-27T00:23:50.448Z,12.73
2019-02-27T00:26:20.597Z,12.47
2019-02-27T00:28:50.735Z,10.95
2019-02-27T00:31:20.930Z,13.70
2019-02-27T00:33:51.123Z,13.50
2019-02-27T00:36:21.321Z,12.18
2019-02-27T00:38:51.487Z,14.43
2019-02-27T00:41:21.731Z,17.35
2019-02-27T00:43:52.538Z,13.62
2019-02-27T00:46:22.681Z,15.35
2019-02-27T00:48:52.863Z,12.73
2019-02-27T00:51:23.030Z,14.10
2019-02-27T00:53:53.180Z,20.90
2019-02-27T00:56:23.327Z,13.90
2019-02-27T00:58:53.508Z,15.68
2019-02-27T01:01:23.695Z,15.75
2019-02-27T01:03:53.818Z,11.73
2019-02-27T01:06:23.967Z,16.95
2019-02-27T01:08:54.074Z,11.75
2019-02-27T01:11:24.213Z,14.13
2019-02-27T01:13:54.380Z,10.95
2019-02-27T01:16:24.491Z,10.08
2019-02-27T01:18:54.643Z,8.00
2019-02-27T01:21:24.740Z,19.02
2019-02-27T01:23:54.901Z,18.17
2019-02-27T01:26:25.018Z,16.30
2019-02-27T01:28:55.215Z,12.78
2019-02-27T01:31:25.336Z,16.37
2019-02-27T01:33:55.448Z,15.45
2019-02-27T01:36:25.598Z,12.73
2019-02-27T01:38:55.792Z,13.60
2019-02-27T01:41:25.980Z,12.28
2019-02-27T01:43:57.109Z,19.37
2019-02-27T01:46:27.778Z,13.30
2019-02-27T01:48:58.694Z,12.78
2019-02-27T01:51:28.919Z,12.00
2019-02-27T01:53:59.140Z,16.32
2019-02-27T01:56:29.725Z,18.82
2019-02-27T01:59:00.032Z,15.15
2019-02-27T02:01:30.843Z,13.08
2019-02-27T02:04:01.060Z,11.00
2019-02-27T02:06:32.460Z,11.93
2019-02-27T02:09:28.761Z,11.68
2019-02-27T02:11:59.481Z,11.63
2019-02-27T02:14:41.798Z,15.48
2019-02-27T02:17:31.982Z,12.05
2019-02-27T02:20:14.085Z,15.95
2019-02-27T02:23:00.260Z,19.00
2019-02-27T02:25:50.882Z,10.45
2019-02-27T02:28:48.011Z,10.63
2019-02-27T02:31:33.690Z,13.08
2019-02-27T02:34:06.924Z,12.50
2019-02-27T02:36:49.167Z,11.50
2019-02-27T02:39:44.862Z,13.70
2019-02-27T02:42:29.711Z,12.47
2019-02-27T02:50:53.961Z,10.82
2019-02-27T02:53:38.141Z,14.80
2019-02-27T02:56:15.183Z,10.45
2019-02-27T02:59:24.801Z,27.82
2019-02-27T03:01:58.430Z,11.03
2019-02-27T03:05:04.941Z,14.15
2019-02-27T03:07:54.758Z,8.98
2019-02-27T03:10:43.861Z,9.50
2019-02-27T03:13:32.196Z,8.38
2019-02-27T03:16:08.139Z,10.50
2019-02-27T03:18:56.205Z,11.00
2019-02-27T03:21:29.481Z,8.98
2019-02-27T03:24:27.905Z,13.62
2019-02-27T03:26:58.858Z,13.20
2019-02-27T03:29:53.605Z,13.72
2019-02-27T03:32:41.263Z,12.15
2019-02-27T03:35:32.017Z,13.80
2019-02-27T03:38:08.038Z,10.95
2019-02-27T03:40:48.109Z,8.10
2019-02-27T03:43:46.809Z,11.45
2019-02-27T03:46:32.368Z,10.50
2019-02-27T03:49:40.718Z,11.25
2019-02-27T03:52:19.481Z,6.78
2019-02-27T03:55:01.702Z,15.38
2019-02-27T03:57:44.087Z,14.18
2019-02-27T04:00:36.394Z,10.03
2019-02-27T04:03:27.781Z,12.78
2019-02-27T04:06:12.692Z,16.30
2019-02-27T04:11:23.514Z,10.40
2019-02-27T04:13:53.719Z,7.65
2019-02-27T04:16:28.869Z,8.20
2019-02-27T04:18:55.676Z,13.05
2019-02-27T04:21:26.092Z,8.55
2019-02-27T04:23:56.386Z,10.68
2019-02-27T04:26:26.528Z,10.10
2019-02-27T04:28:56.664Z,6.87
2019-02-27T04:31:29.444Z,7.87
2019-02-27T04:34:00.362Z,6.20
2019-02-27T04:36:30.289Z,4.92
2019-02-27T04:39:02.470Z,11.90
2019-02-27T04:41:33.707Z,8.65
2019-02-27T04:44:06.030Z,6.95
2019-02-27T04:46:35.576Z,9.10
2019-02-27T04:49:05.721Z,11.28
2019-02-27T04:51:35.856Z,6.00
2019-02-27T04:54:07.331Z,9.53
2019-02-27T04:56:38.351Z,6.47
2019-02-27T04:59:08.485Z,9.20
2019-02-27T05:01:38.601Z,10.50
2019-02-27T05:04:08.752Z,8.33
2019-02-27T05:06:41.154Z,6.67
2019-02-27T05:09:12.726Z,7.75
2019-02-27T05:11:47.470Z,7.03
2019-02-27T05:14:17.513Z,9.85
2019-02-27T05:16:47.829Z,6.28
2019-02-27T05:19:19.081Z,6.65
2019-02-27T05:21:52.230Z,7.28
2019-02-27T05:24:20.996Z,4.85
2019-02-27T05:26:51.137Z,7.65
2019-02-27T05:29:21.315Z,4.87
2019-02-27T05:31:53.303Z,6.35
2019-02-27T05:34:23.193Z,6.42
2019-02-27T05:36:53.296Z,6.67
2019-02-27T05:39:23.438Z,5.55
2019-02-27T05:41:53.572Z,8.70
2019-02-27T05:44:27.570Z,3.40
2019-02-27T05:46:57.745Z,3.98
2019-02-27T05:49:27.880Z,5.70
2019-02-27T05:51:58.028Z,2.98
2019-02-27T05:54:29.988Z,7.25
2019-02-27T05:56:59.902Z,8.48
2019-02-27T05:59:30.001Z,4.87
2019-02-27T06:02:00.187Z,8.18
2019-02-27T06:04:30.315Z,7.50
2019-02-27T06:07:00.445Z,6.53
2019-02-27T06:09:30.623Z,7.35
2019-02-27T06:12:00.756Z,5.85
2019-02-27T06:14:30.960Z,7.90
2019-02-27T06:17:01.076Z,8.75
2019-02-27T06:19:33.622Z,9.58
2019-02-27T06:22:02.966Z,7.78
2019-02-27T06:24:33.104Z,6.03
2019-02-27T06:27:06.108Z,8.78
2019-02-27T06:29:35.146Z,14.20
2019-02-27T06:32:11.906Z,6.37
2019-02-27T06:34:39.342Z,8.73
2019-02-27T06:37:15.337Z,7.92
2019-02-27T06:39:43.413Z,6.53
2019-02-27T06:42:14.159Z,5.12
2019-02-27T06:44:44.456Z,7.87
2019-02-27T06:47:16.193Z,9.38
2019-02-27T06:49:46.358Z,6.25
2019-02-27T06:52:16.472Z,7.15
2019-02-27T06:54:46.799Z,8.60
2019-02-27T06:57:16.935Z,7.03
2019-02-27T06:59:47.061Z,6.03
2019-02-27T07:02:19.075Z,5.33
2019-02-27T07:04:48.974Z,5.35
2019-02-27T07:07:19.651Z,3.62
2019-02-27T07:09:49.788Z,5.05
2019-02-27T07:12:21.794Z,6.00
2019-02-27T07:14:52.427Z,4.05
2019-02-27T07:17:22.545Z,3.40
2019-02-27T07:19:52.738Z,5.33
2019-02-27T07:22:22.849Z,5.42
2019-02-27T07:24:52.987Z,5.83
2019-02-27T07:27:23.093Z,5.92
2019-02-27T07:29:53.236Z,4.37
2019-02-27T07:32:23.341Z,6.80
2019-02-27T07:34:53.491Z,4.40
2019-02-27T07:37:23.593Z,5.85
2019-02-27T07:39:53.853Z,7.28
2019-02-27T07:42:25.546Z,5.17
2019-02-27T07:44:55.678Z,5.28
2019-02-27T07:47:25.864Z,6.40
2019-02-27T07:49:58.126Z,5.12
2019-02-27T07:52:32.100Z,5.90
2019-02-27T07:54:59.744Z,9.10
2019-02-27T07:57:29.912Z,5.95
2019-02-27T08:00:00.267Z,9.43
2019-02-27T08:02:30.520Z,8.43
2019-02-27T08:05:00.682Z,10.40
2019-02-27T08:07:30.844Z,9.35
2019-02-27T08:10:04.597Z,12.00
2019-02-27T08:12:34.975Z,10.25
2019-02-27T08:15:05.822Z,8.33
2019-02-27T08:17:35.925Z,10.90
2019-02-27T08:20:08.006Z,14.75
2019-02-27T08:22:38.141Z,11.97
2019-02-27T08:25:11.522Z,13.68
2019-02-27T08:27:43.749Z,9.83
2019-02-27T08:30:23.598Z,9.95
2019-02-27T08:32:53.708Z,12.93
2019-02-27T08:35:23.868Z,11.20
2019-02-27T08:38:08.513Z,9.83
2019-02-27T08:40:38.663Z,11.25
2019-02-27T08:43:10.258Z,10.30
2019-02-27T08:45:42.929Z,10.05
2019-02-27T08:48:17.106Z,7.62
2019-02-27T08:50:44.806Z,11.05
2019-02-27T08:53:14.927Z,7.60
2019-02-27T08:55:45.089Z,11.53
2019-02-27T08:58:15.212Z,10.48
2019-02-27T09:00:48.156Z,10.38
2019-02-27T09:03:20.560Z,9.55
2019-02-27T09:05:53.653Z,9.55
2019-02-27T09:08:22.833Z,10.68
2019-02-27T09:10:52.977Z,9.25
2019-02-27T09:13:23.102Z,14.38
2019-02-27T09:15:53.799Z,7.45
2019-02-27T09:18:24.089Z,7.80
2019-02-27T09:20:54.336Z,6.78
2019-02-27T09:23:24.449Z,7.95
2019-02-27T09:25:57.291Z,10.72
2019-02-27T09:28:26.335Z,7.95
2019-02-27T09:30:56.472Z,9.13
2019-02-27T09:33:26.597Z,13.10
2019-02-27T09:35:56.763Z,6.97
2019-02-27T09:38:26.893Z,11.18
2019-02-27T09:40:57.957Z,11.18
2019-02-27T09:43:28.085Z,14.87
2019-02-27T09:45:58.226Z,8.03
2019-02-27T09:48:30.918Z,7.03
2019-02-27T09:51:00.178Z,6.67
2019-02-27T09:53:30.311Z,12.78
2019-02-27T09:56:00.462Z,10.82
2019-02-27T09:58:30.577Z,8.08
2019-02-27T10:01:03.790Z,8.85
2019-02-27T10:03:33.898Z,12.60
2019-02-27T10:06:04.107Z,7.55
2019-02-27T10:08:34.233Z,11.00
2019-02-27T10:11:04.397Z,9.63
2019-02-27T10:13:35.482Z,11.45
2019-02-27T10:16:08.538Z,9.63
2019-02-27T10:18:38.652Z,7.80
2019-02-27T10:21:09.452Z,13.50
2019-02-27T10:23:40.548Z,8.90
2019-02-27T10:26:10.687Z,8.60
2019-02-27T10:28:40.793Z,8.90
2019-02-27T10:31:12.648Z,6.90
2019-02-27T10:33:43.484Z,6.97
2019-02-27T10:36:16.198Z,4.83
2019-02-27T10:38:46.648Z,9.23
2019-02-27T10:41:16.797Z,8.45
2019-02-27T10:43:46.909Z,5.40
2019-02-27T10:46:17.054Z,9.10
2019-02-27T10:48:47.620Z,7.15
2019-02-27T10:51:17.805Z,6.75
2019-02-27T10:53:48.033Z,7.12
2019-02-27T10:56:18.210Z,7.28
2019-02-27T10:58:48.357Z,10.23
2019-02-27T11:01:18.521Z,3.95
2019-02-27T11:03:48.680Z,4.28
2019-02-27T11:06:18.828Z,5.62
2019-02-27T11:08:51.261Z,4.50
2019-02-27T11:11:21.436Z,5.20
2019-02-27T11:13:51.776Z,4.58
2019-02-27T11:16:24.220Z,4.78
2019-02-27T11:18:56.210Z,4.45
2019-02-27T11:21:26.349Z,4.58
2019-02-27T11:23:56.490Z,7.95
2019-02-27T11:26:26.634Z,5.67
2019-02-27T11:28:57.819Z,6.53
2019-02-27T11:31:28.236Z,5.85
2019-02-27T11:33:58.329Z,2.92
2019-02-27T11:36:28.590Z,3.10
2019-02-27T11:38:59.300Z,6.42
2019-02-27T11:41:30.177Z,2.80
2019-02-27T11:44:00.329Z,9.28
2019-02-27T11:46:30.481Z,6.40
2019-02-27T11:49:03.186Z,3.95
2019-02-27T11:51:33.172Z,3.90
2019-02-27T11:54:04.338Z,3.58
2019-02-27T11:56:34.553Z,4.42
2019-02-27T11:59:04.710Z,5.80
2019-02-27T12:01:34.929Z,3.35
2019-02-27T12:04:05.101Z,5.80
2019-02-27T12:06:35.374Z,2.65
2019-02-27T12:09:06.545Z,5.37
2019-02-27T12:11:36.847Z,6.17
2019-02-27T12:14:08.989Z,2.05
2019-02-27T12:16:39.978Z,8.75
2019-02-27T12:19:10.141Z,3.50
2019-02-27T12:21:40.295Z,6.50
2019-02-27T12:24:11.562Z,4.10
2019-02-27T12:26:41.708Z,8.28
2019-02-27T12:29:11.855Z,5.83
2019-02-27T12:31:47.938Z,5.03
2019-02-27T12:34:16.868Z,6.35
2019-02-27T12:36:47.025Z,6.28
2019-02-27T12:39:18.648Z,4.37
2019-02-27T12:41:48.919Z,6.00
2019-02-27T12:44:19.069Z,6.05
2019-02-27T12:46:49.290Z,6.40
2019-02-27T12:49:20.956Z,5.80
2019-02-27T12:51:52.130Z,5.50
2019-02-27T12:54:22.274Z,9.30
2019-02-27T12:56:52.423Z,4.60
2019-02-27T12:59:22.560Z,6.40
2019-02-27T13:01:52.734Z,8.33
2019-02-27T13:04:22.841Z,8.30
2019-02-27T13:06:53.003Z,11.15
2019-02-27T13:09:25.418Z,8.88
2019-02-27T13:11:55.570Z,7.87
2019-02-27T13:14:25.700Z,8.58
2019-02-27T13:16:55.854Z,10.55
2019-02-27T13:19:25.975Z,5.65
2019-02-27T13:21:56.130Z,6.22
2019-02-27T13:24:26.290Z,6.62
2019-02-27T13:26:56.413Z,8.05
2019-02-27T13:29:26.589Z,6.20
2019-02-27T13:31:56.740Z,11.35
2019-02-27T13:34:26.905Z,8.23
2019-02-27T13:36:57.033Z,5.28
2019-02-27T13:39:27.216Z,5.83
2019-02-27T13:41:57.410Z,5.87
2019-02-27T13:44:27.609Z,11.90
2019-02-27T13:46:58.566Z,8.15
2019-02-27T13:49:28.757Z,8.88
2019-02-27T13:51:58.908Z,7.20
2019-02-27T13:54:29.130Z,11.73
2019-02-27T13:56:59.273Z,11.15
2019-02-27T13:59:30.553Z,9.55
2019-02-27T14:02:03.839Z,8.83
2019-02-27T14:04:32.514Z,12.03
2019-02-27T14:07:02.673Z,7.72
2019-02-27T14:09:39.166Z,11.08
2019-02-27T14:12:10.035Z,10.90
2019-02-27T14:14:40.192Z,7.60
2019-02-27T14:17:11.344Z,8.75
2019-02-27T14:19:41.769Z,12.35
2019-02-27T14:22:11.916Z,9.33
2019-02-27T14:24:42.080Z,10.10
2019-02-27T14:27:14.562Z,11.50
2019-02-27T14:29:44.062Z,11.12
2019-02-27T14:32:16.470Z,9.08
2019-02-27T14:34:47.453Z,9.03
2019-02-27T14:37:18.462Z,11.28
2019-02-27T14:39:48.637Z,10.70
2019-02-27T14:42:20.552Z,10.63
2019-02-27T14:44:51.476Z,11.97
2019-02-27T14:47:21.625Z,9.20
2019-02-27T14:49:51.794Z,10.40
2019-02-27T14:52:21.950Z,16.10
2019-02-27T14:54:52.839Z,8.90
2019-02-27T14:57:22.985Z,10.45
2019-02-27T14:59:53.149Z,8.73
2019-02-27T15:02:23.316Z,11.90
2019-02-27T15:04:53.430Z,10.53
2019-02-27T15:07:23.594Z,13.03
2019-02-27T15:09:53.708Z,9.60
2019-02-27T15:12:23.865Z,10.08
2019-02-27T15:14:53.989Z,11.68
2019-02-27T15:17:24.241Z,14.40
2019-02-27T15:19:54.421Z,11.97
2019-02-27T15:22:26.873Z,12.47
2019-02-27T15:24:57.030Z,14.30
2019-02-27T15:27:27.279Z,13.35
2019-02-27T15:29:57.429Z,12.85
2019-02-27T15:32:29.432Z,8.48
2019-02-27T15:34:59.298Z,11.90
2019-02-27T15:37:29.566Z,8.88
2019-02-27T15:39:59.676Z,12.13
2019-02-27T15:42:29.825Z,10.23
2019-02-27T15:44:59.962Z,14.40
2019-02-27T15:47:30.305Z,18.05
2019-02-27T15:50:02.648Z,13.53
2019-02-27T15:52:34.462Z,12.05
2019-02-27T15:55:05.984Z,14.70
2019-02-27T15:57:36.150Z,14.35
2019-02-27T16:00:17.695Z,14.53
2019-02-27T16:02:43.892Z,13.43
2019-02-27T16:05:15.220Z,20.70
2019-02-27T16:07:48.725Z,13.83
2019-02-27T16:10:19.014Z,17.05
2019-02-27T16:12:49.171Z,17.10
2019-02-27T16:15:21.485Z,21.93
2019-02-27T16:17:52.221Z,22.60
2019-02-27T16:20:26.441Z,15.90
2019-02-27T16:22:56.609Z,14.07
2019-02-27T16:25:27.769Z,16.65
2019-02-27T16:27:57.962Z,16.65
2019-02-27T16:30:32.515Z,16.77
2019-02-27T16:33:00.961Z,14.15
2019-02-27T16:35:31.081Z,17.70
2019-02-27T16:38:01.237Z,14.13
2019-02-27T16:40:31.372Z,15.08
2019-02-27T16:43:01.511Z,16.02
2019-02-27T16:45:38.026Z,14.47
2019-02-27T16:48:11.094Z,14.18
2019-02-27T16:50:40.697Z,14.05
2019-02-27T16:53:16.253Z,15.88
2019-02-27T16:55:42.693Z,20.12
2019-02-27T16:58:12.909Z,14.50
2019-02-27T17:00:43.781Z,19.45
2019-02-27T17:03:14.765Z,17.32
2019-02-27T17:05:44.996Z,20.17
2019-02-27T17:08:15.209Z,16.62
2019-02-27T17:10:45.392Z,14.58
2019-02-27T17:13:15.630Z,16.10
2019-02-27T17:15:45.815Z,14.18
2019-02-27T17:18:16.069Z,15.18
2019-02-27T17:20:47.272Z,12.50
2019-02-27T17:23:17.466Z,19.67
2019-02-27T17:25:48.200Z,18.20
2019-02-27T17:28:18.415Z,14.70
2019-02-27T17:30:48.566Z,20.85
2019-02-27T17:33:18.698Z,16.20
2019-02-27T17:35:53.041Z,17.87
2019-02-27T17:38:22.965Z,13.50
2019-02-27T17:40:53.112Z,14.68
2019-02-27T17:43:28.518Z,22.35
2019-02-27T17:45:54.961Z,18.70
2019-02-27T17:48:25.084Z,17.40
2019-02-27T17:50:55.230Z,17.52
2019-02-27T17:53:25.368Z,16.65
2019-02-27T17:55:55.521Z,14.90
2019-02-27T17:58:31.907Z,26.50
2019-02-27T18:01:00.004Z,22.02
2019-02-27T18:03:30.113Z,16.30
2019-02-27T18:06:00.289Z,18.35
2019-02-27T18:08:30.504Z,17.80
2019-02-27T18:11:00.650Z,24.43
2019-02-27T18:13:35.385Z,19.12
2019-02-27T18:16:02.552Z,19.15
2019-02-27T18:18:32.682Z,13.70
2019-02-27T18:21:02.812Z,20.17
2019-02-27T18:23:34.653Z,15.93
2019-02-27T18:26:07.061Z,15.08
2019-02-27T18:28:37.236Z,19.25
2019-02-27T18:31:27.419Z,17.67
2019-02-27T18:33:58.176Z,19.12
2019-02-27T18:36:29.618Z,17.70
2019-02-27T18:39:02.575Z,17.75
2019-02-27T18:41:35.338Z,20.82
2019-02-27T18:44:07.888Z,23.87
2019-02-27T18:46:37.323Z,23.87
2019-02-27T18:49:07.473Z,18.62
2019-02-27T18:51:37.597Z,19.32
2019-02-27T18:54:07.758Z,22.32
2019-02-27T18:56:40.381Z,16.57
2019-02-27T18:59:10.751Z,26.70
2019-02-27T19:01:41.384Z,25.00
2019-02-27T19:04:12.801Z,18.67
2019-02-27T19:06:43.131Z,19.75
2019-02-27T19:09:14.976Z,16.55
2019-02-27T19:11:47.487Z,17.50
2019-02-27T19:14:17.022Z,14.45
2019-02-27T19:16:45.469Z,10.58
2019-02-27T19:19:13.751Z,11.35
2019-02-27T19:21:41.641Z,12.28
2019-02-27T19:24:08.870Z,13.10
2019-02-27T19:28:17.409Z,8.80
2019-02-27T19:30:45.317Z,14.35
2019-02-27T19:35:50.115Z,16.27
2019-02-27T19:38:18.328Z,14.43
2019-02-27T19:43:01.324Z,19.90
2019-02-27T19:45:28.501Z,14.05
2019-02-27T19:47:55.862Z,15.80
2019-02-27T19:50:23.194Z,13.20
2019-02-27T19:52:50.228Z,12.50
2019-02-27T19:55:17.352Z,30.55
2019-02-27T19:57:44.486Z,14.30
2019-02-27T20:00:17.226Z,17.30
2019-02-27T20:02:44.290Z,15.03
2019-02-27T20:05:12.387Z,14.23
2019-02-27T20:07:39.577Z,11.25
2019-02-27T20:10:13.668Z,14.05
2019-02-27T20:12:40.742Z,17.40
2019-02-27T20:15:15.497Z,9.25
2019-02-27T20:17:42.722Z,20.77
2019-02-27T20:20:11.744Z,11.57
2019-02-27T20:22:38.775Z,12.60
2019-02-27T20:25:11.674Z,8.33
2019-02-27T20:27:38.682Z,12.00
2019-02-27T20:30:14.084Z,11.90
2019-02-27T20:32:38.497Z,21.42
2019-02-27T20:35:08.175Z,17.37
2019-02-27T20:37:37.120Z,14.70
2019-02-27T20:40:10.038Z,18.67
2019-02-27T20:42:37.881Z,14.15
2019-02-27T20:45:09.578Z,15.80
2019-02-27T20:47:36.715Z,16.37
2019-02-27T20:50:08.886Z,15.90
2019-02-27T20:52:35.949Z,16.32
2019-02-27T20:55:04.102Z,18.73
2019-02-27T20:57:31.167Z,7.53
2019-02-27T21:00:02.181Z,6.05
2019-02-27T21:02:27.217Z,26.20
2019-02-27T21:04:54.257Z,11.75
2019-02-27T21:07:22.507Z,12.75
2019-02-27T21:09:49.873Z,18.48
2019-02-27T21:12:16.942Z,18.37
2019-02-27T21:14:44.021Z,14.38
2019-02-27T21:17:11.144Z,12.30
2019-02-27T21:19:38.283Z,9.43
2019-02-27T21:22:05.309Z,13.80
2019-02-27T21:24:32.377Z,8.55
2019-02-27T21:26:59.398Z,14.10
2019-02-27T21:29:26.465Z,14.07
2019-02-27T21:31:53.526Z,10.35
2019-02-27T21:34:20.615Z,12.80
2019-02-27T21:36:47.634Z,8.33
2019-02-27T21:39:14.670Z,10.80
2019-02-27T21:41:42.243Z,7.15
2019-02-27T21:44:10.615Z,9.45
2019-02-27T21:46:37.721Z,18.02
2019-02-27T21:49:04.789Z,21.87
2019-02-27T21:51:31.971Z,25.35
2019-02-27T21:54:00.295Z,21.07
2019-02-27T21:56:28.524Z,30.50
2019-02-27T21:58:55.618Z,23.90
2019-02-27T22:01:23.749Z,20.12
2019-02-27T22:03:50.781Z,18.82
2019-02-27T22:06:17.793Z,17.32
2019-02-27T22:08:45.869Z,25.85
2019-02-27T22:11:13.002Z,22.87
2019-02-27T22:13:42.173Z,16.07
2019-02-27T22:16:09.213Z,23.92
2019-02-27T22:18:37.349Z,22.67
2019-02-27T22:21:04.465Z,16.32
2019-02-27T22:23:31.753Z,15.63
2019-02-27T22:25:58.816Z,14.58
2019-02-27T22:28:25.889Z,13.70
2019-02-27T22:30:52.917Z,17.17
2019-02-27T22:33:23.046Z,15.35
2019-02-27T22:35:48.834Z,14.30
2019-02-27T22:38:15.937Z,10.20
2019-02-27T22:40:42.968Z,10.68
2019-02-27T22:43:12.370Z,15.13
2019-02-27T22:45:42.021Z,11.57
2019-02-27T22:48:09.333Z,8.30
2019-02-27T22:50:38.314Z,19.90
2019-02-27T22:53:05.200Z,13.13
2019-02-27T22:55:32.190Z,12.63
2019-02-27T22:57:59.291Z,18.23
2019-02-27T23:00:56.511Z,23.15
2019-02-27T23:03:43.366Z,16.35
2019-02-27T23:06:12.222Z,20.23
2019-02-27T23:08:39.789Z,19.73
2019-02-27T23:11:06.964Z,25.20
2019-02-27T23:13:35.743Z,19.82
2019-02-27T23:16:02.841Z,24.50
2019-02-27T23:18:29.849Z,36.63
2019-02-27T23:20:56.937Z,23.20
2019-02-27T23:23:23.918Z,25.60
2019-02-27T23:25:50.973Z,26.80
2019-02-27T23:28:17.934Z,27.80
2019-02-27T23:30:46.992Z,21.75
2019-02-27T23:33:14.914Z,17.25
2019-02-27T23:35:41.973Z,23.35
2019-02-27T23:38:08.970Z,27.07
2019-02-27T23:40:35.982Z,29.00
2019-02-27T23:43:03.612Z,23.40
2019-02-27T23:45:31.192Z,32.03
2019-02-27T23:47:59.246Z,25.27
2019-02-27T23:50:27.173Z,17.15
2019-02-27T23:52:54.301Z,22.62
2019-02-27T23:55:21.465Z,22.58
2019-02-27T23:57:48.513Z,18.32
